Rechercher aéroport 
image banner adimage banner adimage banner ad
image banner ad

95CL - Verdugo Hills Hospital

Situé à Glendale, United States

ICAO - 95CL, IATA -

Données fournies par Airmate  

Information générale

Coordonnées: N34°12'15" W118°13'2"
Élévation : 1430 feet MSL.
Variation magnétique : 14° East
Voir autres Aéroports à California

Données opérationnelles

Special qualification required
Heure actuelle UTC:
Heure actuelle locale:
Météo à : KBUR - Bob Hope ( 13 km )
METAR: KBUR 212153Z 18009KT 10SM CLR 37/03 A3003 RMK AO2 SLP152 T03720028 $
TAF: KBUR 211731Z 2118/2218 00000KT P6SM SKC FM212100 17010KT P6SM SKC FM220300 13006KT P6SM SKC FM220700 VRB03KT P6SM SKC
Voir NOTAMs / SUP AIP / TFR affectant cet aéroport [VIEW]
Fréquences de communication: [VIEW]

Pistes:

Coordonnées de l'aéroport

Adresse: Glendale United States

Vue satellite de 95CL